createdAt,value
2019-04-21T00:02:26.414Z,17.27
2019-04-21T00:05:05.764Z,14.87
2019-04-21T00:07:49.462Z,14.70
2019-04-21T00:10:16.765Z,13.07
2019-04-21T00:12:40.483Z,17.73
2019-04-21T00:15:05.027Z,12.83
2019-04-21T00:17:24.899Z,12.67
2019-04-21T00:20:09.127Z,12.23
2019-04-21T00:22:38.079Z,11.07
2019-04-21T00:25:13.929Z,12.67
2019-04-21T00:27:45.238Z,15.63
2019-04-21T00:30:17.044Z,11.77
2019-04-21T00:32:39.160Z,12.37
2019-04-21T00:35:04.700Z,9.43
2019-04-21T00:37:49.400Z,11.03
2019-04-21T00:40:19.299Z,11.70
2019-04-21T00:42:47.066Z,14.67
2019-04-21T00:45:13.097Z,10.97
2019-04-21T00:47:46.395Z,10.40
2019-04-21T00:50:19.047Z,10.37
2019-04-21T00:53:13.057Z,14.03
2019-04-21T00:55:38.607Z,10.40
2019-04-21T00:58:03.465Z,12.47
2019-04-21T01:00:36.471Z,10.43
2019-04-21T01:03:10.978Z,15.80
2019-04-21T01:05:54.580Z,13.67
2019-04-21T01:08:04.963Z,12.30
2019-04-21T01:10:28.702Z,11.93
2019-04-21T01:13:09.620Z,10.57
2019-04-21T01:15:44.746Z,12.87
2019-04-21T01:18:09.120Z,11.70
2019-04-21T01:20:18.073Z,11.07
2019-04-21T01:22:46.601Z,11.47
2019-04-21T01:25:22.643Z,12.60
2019-04-21T01:27:59.693Z,14.87
2019-04-21T01:30:35.752Z,12.37
2019-04-21T01:33:08.211Z,11.90
2019-04-21T01:35:32.973Z,11.47
2019-04-21T01:38:06.853Z,13.77
2019-04-21T01:40:43.168Z,10.83
2019-04-21T01:43:07.711Z,12.40
2019-04-21T01:45:37.017Z,13.40
2019-04-21T01:48:02.474Z,11.93
2019-04-21T01:50:34.419Z,13.70
2019-04-21T01:53:19.818Z,13.23
2019-04-21T01:56:03.109Z,12.17
2019-04-21T01:58:29.171Z,15.27
2019-04-21T02:01:05.657Z,14.40
2019-04-21T02:06:18.244Z,10.60
2019-04-21T02:08:37.415Z,12.93
2019-04-21T02:11:30.048Z,13.67
2019-04-21T02:13:46.790Z,12.87
2019-04-21T02:16:21.529Z,16.00
2019-04-21T02:18:43.728Z,14.03
2019-04-21T02:21:03.720Z,12.27
2019-04-21T02:23:57.420Z,13.73
2019-04-21T02:26:23.059Z,18.33
2019-04-21T02:28:55.566Z,11.37
2019-04-21T02:31:33.684Z,13.40
2019-04-21T02:41:34.050Z,13.53
2019-04-21T02:46:40.138Z,13.40
2019-04-21T02:49:04.217Z,12.03
2019-04-21T02:51:38.063Z,16.03
2019-04-21T02:54:37.305Z,18.20
2019-04-21T02:59:05.322Z,16.37
2019-04-21T03:02:04.646Z,12.50
2019-04-21T03:09:45.005Z,12.20
2019-04-21T03:17:23.934Z,14.77
2019-04-21T03:22:22.612Z,13.70
2019-04-21T03:27:28.828Z,11.27
2019-04-21T03:29:54.404Z,13.17
2019-04-21T03:40:08.058Z,12.47
2019-04-21T03:49:54.336Z,9.80
2019-04-21T04:03:42.148Z,11.23
2019-04-21T04:06:25.833Z,8.87
2019-04-21T04:09:19.421Z,11.90
2019-04-21T04:11:58.311Z,11.30
2019-04-21T04:14:24.996Z,12.53
2019-04-21T04:20:00.333Z,13.77
2019-04-21T04:22:09.087Z,10.83
2019-04-21T04:24:24.093Z,11.40
2019-04-21T04:26:53.579Z,10.80
2019-04-21T04:37:01.934Z,22.20
2019-04-21T04:39:57.097Z,16.93
2019-04-21T04:44:54.296Z,15.73
2019-04-21T04:47:20.561Z,12.03
2019-04-21T04:49:49.725Z,13.27
2019-04-21T04:59:47.777Z,15.73
2019-04-21T05:02:20.563Z,13.53
2019-04-21T05:05:01.650Z,16.07
2019-04-21T05:07:15.108Z,20.33
2019-04-21T05:12:11.609Z,36.17
2019-04-21T05:14:47.742Z,25.97
2019-04-21T05:17:25.350Z,27.83
2019-04-21T05:19:53.890Z,29.10
2019-04-21T05:22:19.920Z,24.53
2019-04-21T05:24:33.328Z,25.20
2019-04-21T05:27:07.174Z,24.17
2019-04-21T05:29:49.262Z,21.40
2019-04-21T05:32:36.159Z,21.20
2019-04-21T05:35:10.836Z,23.37
2019-04-21T05:37:43.234Z,23.33
2019-04-21T05:40:15.650Z,21.60
2019-04-21T05:42:45.542Z,23.47
2019-04-21T05:45:23.168Z,21.43
2019-04-21T05:48:26.964Z,24.47
2019-04-21T05:50:46.217Z,17.03
2019-04-21T05:53:26.850Z,16.83
2019-04-21T05:55:49.186Z,17.87
2019-04-21T05:58:16.399Z,14.47
2019-04-21T06:01:14.873Z,10.30
2019-04-21T06:03:23.998Z,10.07
2019-04-21T06:06:03.402Z,8.53
2019-04-21T06:08:25.332Z,11.90
2019-04-21T06:13:26.598Z,10.13
2019-04-21T06:15:57.003Z,10.37
2019-04-21T06:18:38.342Z,12.03
2019-04-21T06:20:59.783Z,8.20
2019-04-21T06:23:25.681Z,7.77
2019-04-21T06:26:08.770Z,10.07
2019-04-21T06:28:30.727Z,7.63
2019-04-21T06:31:08.134Z,7.50
2019-04-21T06:33:27.524Z,7.37
2019-04-21T06:36:36.198Z,6.77
2019-04-21T06:39:08.683Z,12.47
2019-04-21T06:41:32.759Z,8.70
2019-04-21T06:44:03.687Z,8.40
2019-04-21T06:46:37.964Z,8.13
2019-04-21T06:48:59.505Z,7.97
2019-04-21T06:51:27.298Z,6.93
2019-04-21T06:56:30.670Z,6.93
2019-04-21T06:58:55.943Z,6.63
2019-04-21T07:01:31.268Z,5.77
2019-04-21T07:04:09.895Z,8.23
2019-04-21T07:06:29.466Z,5.93
2019-04-21T07:09:13.969Z,7.03
2019-04-21T07:11:26.708Z,8.80
2019-04-21T07:14:05.933Z,8.70
2019-04-21T07:16:31.980Z,6.67
2019-04-21T07:19:09.913Z,8.40
2019-04-21T07:21:30.115Z,7.87
2019-04-21T07:23:59.148Z,21.33
2019-04-21T07:26:29.710Z,10.13
2019-04-21T07:29:01.814Z,7.50
2019-04-21T07:31:31.883Z,7.43
2019-04-21T07:34:01.615Z,5.90
2019-04-21T07:36:38.202Z,9.53
2019-04-21T07:38:55.388Z,6.10
2019-04-21T07:41:18.556Z,7.07
2019-04-21T07:43:55.898Z,9.30
2019-04-21T07:46:24.789Z,4.67
2019-04-21T07:49:12.476Z,5.83
2019-04-21T07:52:01.426Z,6.47
2019-04-21T07:54:33.637Z,7.10
2019-04-21T07:56:43.849Z,6.50
2019-04-21T07:59:41.161Z,5.80
2019-04-21T08:01:56.537Z,5.83
2019-04-21T08:04:43.931Z,6.90
2019-04-21T08:07:15.149Z,6.20
2019-04-21T08:09:26.090Z,5.20
2019-04-21T08:11:53.522Z,5.60
2019-04-21T08:14:28.595Z,7.33
2019-04-21T08:16:57.664Z,7.17
2019-04-21T08:19:29.660Z,5.87
2019-04-21T08:22:08.017Z,8.10
2019-04-21T08:24:28.596Z,6.80
2019-04-21T08:27:01.801Z,6.97
2019-04-21T08:29:33.421Z,6.13
2019-04-21T08:32:02.614Z,7.03
2019-04-21T08:34:29.961Z,5.07
2019-04-21T08:37:00.235Z,5.33
2019-04-21T08:39:33.163Z,6.07
2019-04-21T08:41:56.182Z,6.30
2019-04-21T08:44:38.060Z,7.83
2019-04-21T08:47:07.759Z,5.83
2019-04-21T08:49:26.775Z,7.17
2019-04-21T08:52:09.861Z,5.67
2019-04-21T08:54:35.103Z,5.60
2019-04-21T08:57:24.583Z,6.07
2019-04-21T09:00:01.598Z,6.43
2019-04-21T09:02:35.189Z,9.60
2019-04-21T09:05:04.711Z,8.40
2019-04-21T09:10:02.904Z,4.43
2019-04-21T09:12:34.626Z,6.27
2019-04-21T09:15:04.590Z,6.93
2019-04-21T09:17:28.436Z,4.97
2019-04-21T09:20:09.617Z,6.80
2019-04-21T09:22:30.783Z,5.53
2019-04-21T09:25:01.472Z,7.17
2019-04-21T09:29:57.716Z,5.60
2019-04-21T09:32:26.796Z,4.87
2019-04-21T09:34:52.740Z,7.03
2019-04-21T09:37:36.715Z,5.67
2019-04-21T09:39:55.150Z,7.03
2019-04-21T09:42:26.985Z,6.33
2019-04-21T09:44:55.595Z,5.83
2019-04-21T09:47:24.947Z,4.70
2019-04-21T09:49:52.364Z,5.97
2019-04-21T09:52:25.705Z,6.97
2019-04-21T09:55:00.836Z,4.80
2019-04-21T09:57:32.719Z,6.50
2019-04-21T10:00:00.903Z,6.00
2019-04-21T10:02:34.333Z,5.77
2019-04-21T10:04:52.761Z,7.23
2019-04-21T10:07:28.186Z,5.13
2019-04-21T10:09:52.400Z,5.93
2019-04-21T10:12:20.914Z,5.47
2019-04-21T10:14:49.459Z,4.10
2019-04-21T10:17:21.708Z,5.03
2019-04-21T10:19:50.700Z,4.93
2019-04-21T10:22:19.080Z,7.53
2019-04-21T10:24:48.853Z,5.07
2019-04-21T10:27:17.269Z,5.60
2019-04-21T10:29:47.211Z,6.23
2019-04-21T10:32:18.669Z,7.15
2019-04-21T10:34:47.497Z,3.98
2019-04-21T10:37:16.620Z,4.28
2019-04-21T10:39:45.386Z,6.60
2019-04-21T10:42:13.326Z,5.40
2019-04-21T10:44:43.140Z,6.30
2019-04-21T10:47:11.327Z,5.40
2019-04-21T10:49:40.322Z,5.67
2019-04-21T10:52:15.440Z,3.90
2019-04-21T10:55:06.793Z,4.72
2019-04-21T10:57:20.091Z,6.53
2019-04-21T10:59:51.051Z,5.62
2019-04-21T11:02:26.389Z,4.50
2019-04-21T11:04:54.962Z,4.37
2019-04-21T11:07:55.344Z,5.17
2019-04-21T11:10:13.957Z,6.75
2019-04-21T11:12:43.171Z,5.45
2019-04-21T11:15:12.344Z,4.85
2019-04-21T11:17:43.253Z,5.00
2019-04-21T11:20:13.082Z,4.03
2019-04-21T11:22:41.693Z,6.85
2019-04-21T11:25:11.174Z,7.05
2019-04-21T11:27:40.855Z,7.40
2019-04-21T11:30:09.562Z,5.85
2019-04-21T11:32:39.040Z,5.35
2019-04-21T11:35:09.361Z,6.53
2019-04-21T11:37:38.175Z,12.37
2019-04-21T11:40:10.822Z,5.78
2019-04-21T11:42:39.782Z,5.87
2019-04-21T11:45:10.383Z,8.13
2019-04-21T11:47:42.689Z,7.55
2019-04-21T11:50:12.794Z,8.38
2019-04-21T11:52:41.140Z,6.37
2019-04-21T11:55:11.008Z,10.20
2019-04-21T11:57:42.778Z,7.70
2019-04-21T12:00:09.698Z,7.35
2019-04-21T12:02:38.029Z,9.10
2019-04-21T12:05:09.750Z,6.97
2019-04-21T12:07:38.316Z,7.65
2019-04-21T12:10:06.998Z,9.35
2019-04-21T12:12:35.104Z,7.07
2019-04-21T12:15:03.980Z,8.67
2019-04-21T12:17:34.094Z,7.13
2019-04-21T12:20:03.260Z,8.30
2019-04-21T12:22:33.962Z,7.37
2019-04-21T12:25:05.036Z,7.58
2019-04-21T12:27:33.981Z,7.03
2019-04-21T12:30:03.803Z,8.75
2019-04-21T12:33:07.724Z,7.40
2019-04-21T12:35:37.695Z,8.03
2019-04-21T12:38:06.761Z,7.37
2019-04-21T12:40:35.068Z,9.38
2019-04-21T12:43:03.374Z,8.03
2019-04-21T12:45:31.671Z,7.25
2019-04-21T12:48:00.192Z,10.90
2019-04-21T12:50:29.991Z,9.43
2019-04-21T12:52:59.880Z,6.42
2019-04-21T12:55:31.637Z,6.58
2019-04-21T12:57:59.464Z,6.15
2019-04-21T13:00:27.177Z,8.95
2019-04-21T13:02:56.037Z,9.30
2019-04-21T13:05:25.428Z,8.65
2019-04-21T13:07:53.680Z,7.60
2019-04-21T13:10:22.224Z,8.63
2019-04-21T13:12:50.100Z,7.70
2019-04-21T13:15:19.900Z,9.85
2019-04-21T13:17:48.169Z,7.83
2019-04-21T13:20:17.084Z,7.25
2019-04-21T13:22:46.135Z,6.60
2019-04-21T13:25:14.400Z,7.90
2019-04-21T13:27:43.068Z,9.08
2019-04-21T13:30:14.558Z,8.30
2019-04-21T13:32:45.258Z,6.45
2019-04-21T13:35:15.067Z,6.62
2019-04-21T13:37:45.811Z,7.75
2019-04-21T13:40:53.032Z,10.05
2019-04-21T13:43:08.217Z,7.33
2019-04-21T13:45:37.371Z,7.58
2019-04-21T13:48:06.540Z,14.40
2019-04-21T13:50:35.351Z,6.17
2019-04-21T13:53:04.844Z,8.75
2019-04-21T13:55:36.745Z,6.95
2019-04-21T13:58:04.270Z,6.15
2019-04-21T14:00:33.795Z,6.03
2019-04-21T14:03:02.945Z,5.22
2019-04-21T14:05:32.685Z,6.03
2019-04-21T14:08:01.087Z,4.97
2019-04-21T14:10:29.408Z,5.50
2019-04-21T14:12:58.399Z,6.47
2019-04-21T14:15:26.348Z,9.20
2019-04-21T14:17:55.220Z,6.15
2019-04-21T14:20:24.913Z,8.88
2019-04-21T14:22:54.001Z,7.55
2019-04-21T14:25:23.784Z,5.45
2019-04-21T14:27:54.517Z,5.85
2019-04-21T14:30:26.185Z,5.75
2019-04-21T14:32:56.241Z,5.80
2019-04-21T14:35:25.141Z,6.15
2019-04-21T14:37:53.414Z,5.87
2019-04-21T14:40:24.372Z,7.67
2019-04-21T14:42:52.137Z,6.17
2019-04-21T14:45:42.949Z,6.28
2019-04-21T14:48:29.714Z,10.20
2019-04-21T14:51:35.156Z,7.22
2019-04-21T14:54:31.186Z,10.00
2019-04-21T14:57:00.941Z,6.30
2019-04-21T14:59:29.352Z,7.20
2019-04-21T15:01:57.952Z,7.50
2019-04-21T15:04:27.901Z,5.40
2019-04-21T15:06:57.050Z,7.92
2019-04-21T15:09:27.106Z,6.42
2019-04-21T15:11:56.134Z,8.05
2019-04-21T15:14:26.177Z,6.20
2019-04-21T15:16:54.582Z,5.87
2019-04-21T15:19:24.542Z,7.22
2019-04-21T15:21:52.405Z,5.05
2019-04-21T15:24:22.383Z,5.15
2019-04-21T15:26:52.872Z,6.58
2019-04-21T15:29:22.468Z,6.20
2019-04-21T15:31:50.753Z,6.42
2019-04-21T15:34:19.251Z,5.95
2019-04-21T15:36:50.226Z,6.90
2019-04-21T15:39:19.527Z,6.53
2019-04-21T15:41:48.330Z,11.93
2019-04-21T15:44:16.961Z,5.10
2019-04-21T15:46:46.113Z,5.50
2019-04-21T15:49:15.414Z,5.28
2019-04-21T15:51:44.255Z,7.95
2019-04-21T15:54:14.335Z,4.70
2019-04-21T15:56:46.987Z,5.17
2019-04-21T15:59:34.898Z,6.47
2019-04-21T16:02:22.358Z,7.87
2019-04-21T16:04:50.727Z,6.75
2019-04-21T16:07:18.578Z,5.92
2019-04-21T16:09:46.449Z,5.50
2019-04-21T16:12:15.910Z,6.50
2019-04-21T16:14:44.734Z,5.53
2019-04-21T16:17:15.001Z,6.25
2019-04-21T16:19:43.866Z,6.08
2019-04-21T16:22:12.991Z,5.65
2019-04-21T16:24:42.049Z,9.05
2019-04-21T16:27:12.502Z,7.60
2019-04-21T16:29:39.868Z,11.87
2019-04-21T16:32:09.120Z,6.08
2019-04-21T16:34:48.379Z,7.40
2019-04-21T16:37:09.788Z,7.50
2019-04-21T16:39:38.108Z,6.93
2019-04-21T16:42:08.429Z,6.40
2019-04-21T16:44:36.846Z,8.37
2019-04-21T16:47:05.478Z,6.23
2019-04-21T16:49:33.738Z,7.70
2019-04-21T16:52:18.293Z,9.43
2019-04-21T16:54:49.806Z,10.03
2019-04-21T16:57:31.603Z,5.67
2019-04-21T17:00:04.612Z,7.47
2019-04-21T17:02:32.671Z,10.73
2019-04-21T17:05:02.509Z,6.43
2019-04-21T17:07:32.409Z,5.50
2019-04-21T17:10:00.683Z,8.17
2019-04-21T17:12:30.645Z,7.00
2019-04-21T17:15:13.895Z,7.20
2019-04-21T17:17:49.760Z,10.07
2019-04-21T17:20:13.589Z,6.17
2019-04-21T17:22:29.494Z,6.87
2019-04-21T17:24:58.278Z,7.10
2019-04-21T17:27:27.227Z,7.63
2019-04-21T17:29:55.098Z,7.43
2019-04-21T17:32:25.713Z,6.80
2019-04-21T17:34:54.179Z,7.77
2019-04-21T17:37:25.084Z,10.80
2019-04-21T17:39:52.570Z,5.97
2019-04-21T17:42:30.031Z,8.63
2019-04-21T17:44:51.240Z,7.30
2019-04-21T17:47:29.942Z,5.73
2019-04-21T17:50:09.835Z,7.37
2019-04-21T17:52:50.508Z,7.80
2019-04-21T17:55:25.770Z,6.87
2019-04-21T17:58:05.082Z,9.53
2019-04-21T18:01:05.552Z,5.90
2019-04-21T18:03:25.235Z,6.43
2019-04-21T18:05:42.186Z,6.07
2019-04-21T18:08:18.490Z,9.70
2019-04-21T18:10:42.207Z,6.67
2019-04-21T18:13:04.456Z,6.80
2019-04-21T18:15:40.191Z,6.03
2019-04-21T18:17:56.769Z,6.43
2019-04-21T18:20:28.418Z,6.07
2019-04-21T18:23:07.521Z,6.47
2019-04-21T18:25:45.196Z,9.63
2019-04-21T18:28:05.107Z,6.47
2019-04-21T18:30:42.878Z,9.93
2019-04-21T18:33:14.203Z,11.53
2019-04-21T18:36:25.014Z,6.23
2019-04-21T18:39:12.189Z,5.20
2019-04-21T18:41:36.556Z,6.27
2019-04-21T18:44:32.240Z,5.90
2019-04-21T18:47:09.538Z,8.13
2019-04-21T18:49:27.075Z,7.90
2019-04-21T18:52:05.940Z,8.57
2019-04-21T18:54:45.850Z,10.27
2019-04-21T18:57:10.211Z,8.07
2019-04-21T18:59:37.729Z,8.30
2019-04-21T19:02:06.307Z,5.77
2019-04-21T19:04:34.899Z,8.47
2019-04-21T19:07:12.743Z,8.93
2019-04-21T19:10:14.395Z,8.37
2019-04-21T19:12:23.533Z,11.37
2019-04-21T19:14:44.706Z,16.20
2019-04-21T19:19:55.465Z,9.83
2019-04-21T19:22:15.786Z,7.63
2019-04-21T19:24:54.901Z,9.47
2019-04-21T19:27:22.740Z,8.17
2019-04-21T19:30:01.662Z,7.30
2019-04-21T19:32:22.825Z,7.33
2019-04-21T19:34:35.998Z,8.10
2019-04-21T19:37:10.968Z,6.83
2019-04-21T19:39:43.400Z,7.60
2019-04-21T19:42:12.752Z,6.73
2019-04-21T19:44:52.194Z,5.57
2019-04-21T19:47:28.114Z,6.23
2019-04-21T19:50:01.510Z,6.97
2019-04-21T19:52:22.611Z,6.27
2019-04-21T19:54:44.453Z,6.33
2019-04-21T19:57:09.043Z,7.27
2019-04-21T19:59:44.649Z,6.47
2019-04-21T20:02:08.980Z,6.07
2019-04-21T20:04:43.910Z,6.73
2019-04-21T20:07:22.966Z,9.03
2019-04-21T20:09:56.692Z,5.37
2019-04-21T20:12:34.226Z,7.73
2019-04-21T20:14:59.685Z,5.17
2019-04-21T20:17:24.431Z,5.80
2019-04-21T20:19:40.264Z,7.23
2019-04-21T20:22:09.369Z,7.73
2019-04-21T20:24:39.652Z,6.60
2019-04-21T20:27:15.868Z,5.67
2019-04-21T20:29:58.805Z,6.30
2019-04-21T20:32:45.617Z,7.00
2019-04-21T20:35:00.945Z,6.73
2019-04-21T20:37:29.734Z,5.50
2019-04-21T20:39:46.971Z,6.17
2019-04-21T20:42:24.155Z,8.03
2019-04-21T20:45:16.077Z,7.17
2019-04-21T20:47:24.699Z,7.27
2019-04-21T20:49:58.517Z,8.27
2019-04-21T20:52:38.469Z,6.23
2019-04-21T20:55:03.273Z,8.43
2019-04-21T20:57:32.829Z,5.17
2019-04-21T21:00:06.650Z,7.67
2019-04-21T21:02:41.709Z,7.00
2019-04-21T21:04:56.881Z,8.20
2019-04-21T21:07:44.387Z,6.23
2019-04-21T21:10:04.681Z,6.77
2019-04-21T21:12:43.124Z,5.93
2019-04-21T21:15:00.161Z,7.53
2019-04-21T21:17:50.368Z,5.17
2019-04-21T21:20:15.994Z,6.13
2019-04-21T21:22:36.764Z,7.33
2019-04-21T21:25:11.738Z,8.03
2019-04-21T21:27:32.197Z,7.53
2019-04-21T21:30:05.719Z,5.53
2019-04-21T21:32:37.306Z,7.37
2019-04-21T21:35:08.067Z,9.00
2019-04-21T21:37:42.087Z,9.00
2019-04-21T21:40:11.435Z,8.33
2019-04-21T21:42:27.519Z,7.10
2019-04-21T21:44:58.509Z,8.63
2019-04-21T21:47:37.020Z,7.43
2019-04-21T21:50:03.777Z,6.40
2019-04-21T21:52:43.009Z,5.90
2019-04-21T21:54:53.893Z,9.17
2019-04-21T21:57:22.909Z,7.70
2019-04-21T21:59:58.793Z,7.30
2019-04-21T22:02:32.872Z,6.73
2019-04-21T22:05:02.310Z,8.03
2019-04-21T22:07:26.981Z,10.10
2019-04-21T22:09:52.893Z,6.73
2019-04-21T22:12:22.174Z,6.30
2019-04-21T22:14:53.773Z,8.80
2019-04-21T22:17:34.598Z,6.73
2019-04-21T22:20:12.217Z,6.40
2019-04-21T22:22:32.453Z,4.77
2019-04-21T22:25:02.678Z,5.20
2019-04-21T22:27:21.566Z,5.20
2019-04-21T22:29:55.026Z,8.10
2019-04-21T22:32:25.475Z,6.43
2019-04-21T22:34:56.487Z,9.70
2019-04-21T22:37:35.988Z,7.97
2019-04-21T22:40:04.731Z,7.23
2019-04-21T22:42:27.176Z,8.67
2019-04-21T22:44:52.326Z,6.57
2019-04-21T22:47:33.736Z,6.43
2019-04-21T22:49:59.248Z,7.00
2019-04-21T22:52:29.938Z,11.00
2019-04-21T22:55:00.840Z,5.07
2019-04-21T22:57:32.541Z,6.30
2019-04-21T23:00:01.817Z,4.63
2019-04-21T23:02:31.639Z,6.27
2019-04-21T23:05:00.528Z,6.43
2019-04-21T23:07:34.938Z,7.10
2019-04-21T23:09:59.357Z,7.03
2019-04-21T23:12:32.777Z,6.20
2019-04-21T23:15:05.730Z,7.17
2019-04-21T23:17:50.625Z,10.27
2019-04-21T23:20:18.131Z,8.57
2019-04-21T23:22:58.032Z,8.03
2019-04-21T23:25:18.902Z,9.97
2019-04-21T23:27:46.975Z,12.27
2019-04-21T23:30:25.851Z,6.70
2019-04-21T23:32:40.980Z,7.13
2019-04-21T23:35:09.238Z,5.80
2019-04-21T23:37:34.154Z,7.13
2019-04-21T23:40:07.630Z,5.93
2019-04-21T23:42:35.040Z,7.40
2019-04-21T23:45:02.935Z,8.37
2019-04-21T23:47:44.219Z,5.70
2019-04-21T23:50:15.964Z,7.20
2019-04-21T23:52:31.880Z,9.13
2019-04-21T23:55:01.067Z,5.10
2019-04-21T23:57:36.971Z,5.10
